Time;durP1;ratioP1;P1;durP2;ratioP2;P2;SDS_P1;SDS_P2;PMS_P1;PMS_P2;Temp;Humidity;BMP_temperature;BMP_pressure;BME280_temperature;BME280_humidity;BME280_pressure;Samples;Min_cycle;Max_cycle;Signal;HPM_P1;HPM_P2
2023/12/08 00:01:38;;;;;;;30.35;16.75;;;;;;;2.33;100.00;100852.09;5081015;28;20082;-74
2023/12/08 00:04:03;;;;;;;32.90;17.48;;;;;;;2.39;100.00;100851.06;5077254;28;20044;-73
2023/12/08 00:06:29;;;;;;;35.25;18.95;;;;;;;2.31;100.00;100838.13;5081042;28;20036;-73
2023/12/08 00:08:55;;;;;;;30.20;17.27;;;;;;;2.32;100.00;100829.34;5079459;28;20098;-73
2023/12/08 00:11:21;;;;;;;32.88;17.80;;;;;;;2.34;100.00;100810.88;5097956;27;20032;-73
2023/12/08 00:13:46;;;;;;;31.00;17.02;;;;;;;2.24;100.00;100817.31;5052553;28;20746;-73
2023/12/08 00:16:11;;;;;;;33.70;17.45;;;;;;;2.25;100.00;100812.00;5079971;28;20036;-73
2023/12/08 00:18:37;;;;;;;31.58;17.83;;;;;;;2.28;100.00;100803.16;5056985;28;20060;-73
2023/12/08 00:21:02;;;;;;;31.08;17.40;;;;;;;2.31;100.00;100793.41;5073751;28;20036;-73
2023/12/08 00:23:28;;;;;;;30.27;15.82;;;;;;;2.40;100.00;100784.34;5071512;28;20040;-73
2023/12/08 00:25:54;;;;;;;29.77;17.42;;;;;;;2.36;100.00;100790.66;5055540;28;20218;-73
2023/12/08 00:28:19;;;;;;;32.72;18.45;;;;;;;2.31;100.00;100782.88;5080844;28;20047;-74
2023/12/08 00:30:45;;;;;;;31.13;17.20;;;;;;;2.27;100.00;100778.63;5071515;28;20823;-73
2023/12/08 00:33:10;;;;;;;28.33;15.70;;;;;;;2.42;100.00;100769.41;5075636;28;20037;-73
2023/12/08 00:35:36;;;;;;;32.95;17.45;;;;;;;2.54;100.00;100763.75;5073622;28;20842;-73
2023/12/08 00:38:01;;;;;;;30.13;17.25;;;;;;;2.50;100.00;100764.75;5073564;28;20056;-73
2023/12/08 00:40:27;;;;;;;29.20;16.73;;;;;;;2.48;100.00;100757.81;5059776;28;20036;-73
2023/12/08 00:42:52;;;;;;;28.50;16.63;;;;;;;2.39;100.00;100752.84;5067044;28;20044;-73
2023/12/08 00:45:19;;;;;;;29.88;17.00;;;;;;;2.20;100.00;100763.06;5058685;28;20036;-74
2023/12/08 00:47:44;;;;;;;31.50;16.83;;;;;;;2.40;100.00;100749.28;5070145;28;20029;-74
2023/12/08 00:50:10;;;;;;;29.70;17.02;;;;;;;2.36;100.00;100735.41;5069839;27;20940;-74
2023/12/08 00:52:36;;;;;;;31.50;17.52;;;;;;;2.36;100.00;100719.59;5073165;28;20094;-73
2023/12/08 00:55:01;;;;;;;33.63;16.60;;;;;;;2.27;100.00;100728.63;5070890;27;20033;-73
2023/12/08 00:57:27;;;;;;;33.33;17.67;;;;;;;2.37;100.00;100731.84;5065983;28;20032;-74
2023/12/08 00:59:52;;;;;;;32.97;18.13;;;;;;;2.48;100.00;100732.34;5074596;27;20584;-73
2023/12/08 01:02:18;;;;;;;31.85;18.85;;;;;;;2.47;100.00;100719.25;5082028;27;20035;-74
2023/12/08 01:04:43;;;;;;;33.45;17.77;;;;;;;2.46;100.00;100714.88;5070149;27;20885;-74
2023/12/08 01:07:10;;;;;;;32.40;18.48;;;;;;;2.51;100.00;100719.13;5070596;27;20036;-74
2023/12/08 01:09:35;;;;;;;31.00;17.00;;;;;;;2.57;100.00;100724.19;5054827;28;20047;-74
2023/12/08 01:12:01;;;;;;;34.63;17.95;;;;;;;2.43;100.00;100709.75;5052531;27;20125;-74
2023/12/08 01:14:26;;;;;;;33.38;17.80;;;;;;;2.42;100.00;100706.25;5054968;28;20112;-74
2023/12/08 01:16:52;;;;;;;35.53;18.05;;;;;;;2.21;100.00;100714.78;5069670;27;20040;-74
2023/12/08 01:19:17;;;;;;;37.35;18.60;;;;;;;2.26;100.00;100729.56;5063759;28;20048;-74
2023/12/08 01:21:43;;;;;;;33.03;17.02;;;;;;;2.48;100.00;100729.72;5075060;27;20041;-74
2023/12/08 01:24:08;;;;;;;36.17;18.60;;;;;;;2.55;100.00;100725.13;5071473;27;20063;-74
2023/12/08 01:26:34;;;;;;;35.50;17.10;;;;;;;2.52;100.00;100719.97;5075456;28;20044;-74
2023/12/08 01:29:00;;;;;;;35.75;18.95;;;;;;;2.54;100.00;100720.78;5084684;28;20510;-74
2023/12/08 01:31:25;;;;;;;31.63;17.38;;;;;;;2.45;100.00;100727.19;5055726;28;20040;-73
2023/12/08 01:33:51;;;;;;;33.50;16.67;;;;;;;2.36;100.00;100716.97;5057909;28;20147;-73
2023/12/08 01:36:16;;;;;;;27.65;16.35;;;;;;;2.44;100.00;100721.97;5056133;28;20052;-74
2023/12/08 01:38:44;;;;;;;31.05;16.45;;;;;;;2.25;100.00;100722.53;5072260;28;20051;-74
2023/12/08 01:41:13;;;;;;;25.58;15.25;;;;;;;2.07;100.00;100718.72;5074836;28;20040;-74
2023/12/08 01:43:39;;;;;;;28.75;15.73;;;;;;;2.12;100.00;100725.63;5069552;28;20758;-73
2023/12/08 01:46:05;;;;;;;28.80;15.52;;;;;;;2.21;100.00;100715.69;5070456;28;20032;-73
2023/12/08 01:48:31;;;;;;;30.02;16.55;;;;;;;2.24;100.00;100710.31;5072998;27;20045;-73
2023/12/08 01:50:57;;;;;;;28.10;16.75;;;;;;;2.33;100.00;100715.28;5078593;28;20047;-74
2023/12/08 01:53:23;;;;;;;31.27;17.95;;;;;;;2.28;100.00;100713.72;5072847;28;20200;-74
2023/12/08 01:55:48;;;;;;;27.83;16.05;;;;;;;2.28;100.00;100709.31;5055413;28;20040;-73
2023/12/08 01:58:14;;;;;;;32.28;16.60;;;;;;;2.25;100.00;100704.13;5075736;28;20086;-73
2023/12/08 02:00:41;;;;;;;27.10;16.20;;;;;;;2.39;100.00;100695.81;5076582;28;20556;-74
2023/12/08 02:03:07;;;;;;;31.15;16.42;;;;;;;2.56;100.00;100706.66;5071963;28;20108;-74
2023/12/08 02:05:36;;;;;;;28.67;15.57;;;;;;;2.36;100.00;100700.28;5090121;27;20913;-73
2023/12/08 02:08:01;;;;;;;31.05;17.30;;;;;;;2.47;100.00;100704.31;5061697;28;20044;-73
2023/12/08 02:10:27;;;;;;;29.00;16.25;;;;;;;2.48;100.00;100694.66;5076572;28;20098;-73
2023/12/08 02:12:52;;;;;;;29.75;15.75;;;;;;;2.44;100.00;100680.72;5055456;28;20045;-74
2023/12/08 02:15:18;;;;;;;32.95;17.48;;;;;;;2.36;100.00;100685.41;5076990;28;20048;-74
2023/12/08 02:17:45;;;;;;;27.95;15.90;;;;;;;2.59;100.00;100685.50;5076966;28;20052;-75
2023/12/08 02:20:11;;;;;;;29.33;16.33;;;;;;;2.58;100.00;100686.41;5062065;28;20041;-74
2023/12/08 02:22:37;;;;;;;32.33;16.52;;;;;;;2.51;100.00;100678.75;5080665;28;20101;-74
2023/12/08 02:25:03;;;;;;;28.45;16.40;;;;;;;2.57;100.00;100678.56;5082617;28;20122;-74
2023/12/08 02:27:29;;;;;;;30.75;16.55;;;;;;;2.69;100.00;100672.03;5058881;28;20039;-74
2023/12/08 02:29:55;;;;;;;28.95;16.25;;;;;;;2.74;100.00;100683.25;5059980;28;20040;-75
2023/12/08 02:32:41;;;;;;;30.77;16.92;;;;;;;2.75;100.00;100680.56;5083725;28;20962;-74
2023/12/08 02:35:08;;;;;;;31.10;17.65;;;;;;;2.71;100.00;100663.19;5079314;28;20147;-74
2023/12/08 02:37:36;;;;;;;27.73;16.15;;;;;;;2.83;100.00;100662.75;5086417;28;20056;-74
2023/12/08 02:40:04;;;;;;;27.48;16.40;;;;;;;2.83;100.00;100659.25;5073612;28;20151;-74
2023/12/08 02:42:30;;;;;;;27.58;15.68;;;;;;;2.72;100.00;100646.47;5073385;28;20041;-74
2023/12/08 02:44:56;;;;;;;30.63;17.35;;;;;;;2.70;100.00;100637.75;5055628;28;20738;-74
2023/12/08 02:47:21;;;;;;;29.00;14.63;;;;;;;2.73;100.00;100639.44;5090321;27;20042;-75
2023/12/08 02:49:47;;;;;;;25.58;14.93;;;;;;;2.76;100.00;100626.13;5072894;28;20839;-74
2023/12/08 02:52:12;;;;;;;24.27;14.20;;;;;;;2.64;100.00;100622.16;5072845;28;20036;-74
2023/12/08 02:54:38;;;;;;;30.17;14.85;;;;;;;2.78;100.00;100621.69;5073142;28;20922;-75
2023/12/08 02:57:03;;;;;;;27.58;15.82;;;;;;;2.85;100.00;100602.97;5079623;28;20036;-75
2023/12/08 02:59:29;;;;;;;25.90;15.25;;;;;;;2.81;100.00;100611.03;5082477;28;20757;-75
2023/12/08 03:01:54;;;;;;;29.42;16.02;;;;;;;2.79;100.00;100620.78;5088504;27;20102;-75
2023/12/08 03:04:20;;;;;;;31.52;17.38;;;;;;;2.69;100.00;100620.25;5070998;28;20043;-74
2023/12/08 03:06:45;;;;;;;31.80;17.05;;;;;;;2.82;100.00;100618.91;5073064;28;20044;-74
2023/12/08 03:09:11;;;;;;;27.38;15.68;;;;;;;2.68;100.00;100613.25;5076437;28;20833;-75
2023/12/08 03:11:36;;;;;;;30.02;17.05;;;;;;;2.74;100.00;100610.41;5074604;28;20135;-75
2023/12/08 03:14:02;;;;;;;31.08;17.35;;;;;;;2.65;100.00;100608.09;5073320;28;20032;-75
2023/12/08 03:16:27;;;;;;;31.98;18.60;;;;;;;2.71;100.00;100602.63;5075636;28;20043;-74
2023/12/08 03:18:53;;;;;;;30.23;17.40;;;;;;;2.60;100.00;100610.03;5081139;28;20106;-74
2023/12/08 03:21:25;;;;;;;32.72;18.73;;;;;;;2.53;100.00;100605.88;5079376;28;20036;-75
2023/12/08 03:23:51;;;;;;;35.97;19.48;;;;;;;2.70;100.00;100606.16;5053821;28;20037;-75
2023/12/08 03:26:18;;;;;;;36.28;19.25;;;;;;;2.59;100.00;100601.28;5071960;28;20055;-75
2023/12/08 03:28:43;;;;;;;33.75;19.20;;;;;;;2.45;100.00;100595.63;5093753;27;20032;-74
2023/12/08 03:31:23;;;;;;;35.47;19.67;;;;;;;2.40;100.00;100602.81;5080439;28;20856;-75
2023/12/08 03:33:49;;;;;;;33.95;18.63;;;;;;;2.33;100.00;100601.31;5075703;28;20036;-74
2023/12/08 03:36:14;;;;;;;36.03;19.52;;;;;;;2.44;100.00;100604.44;5071723;28;20916;-74
2023/12/08 03:38:40;;;;;;;36.50;19.63;;;;;;;2.34;100.00;100603.88;5072945;28;20048;-74
2023/12/08 03:41:05;;;;;;;36.90;20.95;;;;;;;2.50;100.00;100598.94;5072689;28;20091;-74
2023/12/08 03:43:30;;;;;;;38.38;19.55;;;;;;;2.39;100.00;100595.81;5071428;28;20048;-74
2023/12/08 03:45:56;;;;;;;43.55;21.30;;;;;;;2.47;100.00;100591.19;5074218;28;20049;-74
2023/12/08 03:48:21;;;;;;;47.13;24.17;;;;;;;2.50;100.00;100590.19;5077216;28;20040;-75
2023/12/08 03:50:47;;;;;;;39.63;21.35;;;;;;;2.53;100.00;100588.31;5080098;28;20060;-75
2023/12/08 03:53:12;;;;;;;43.10;20.98;;;;;;;2.34;100.00;100579.34;5089175;27;20106;-74
2023/12/08 03:55:38;;;;;;;46.08;20.77;;;;;;;2.49;100.00;100583.22;5064382;28;22975;-74
2023/12/08 03:58:03;;;;;;;41.83;22.63;;;;;;;2.31;100.00;100571.56;5052641;28;20048;-74
2023/12/08 04:00:29;;;;;;;43.92;21.30;;;;;;;2.30;100.00;100577.72;5075006;28;20033;-73
2023/12/08 04:02:54;;;;;;;41.50;21.75;;;;;;;2.39;100.00;100573.91;5075288;28;20851;-75
2023/12/08 04:05:20;;;;;;;39.72;21.63;;;;;;;2.35;100.00;100581.03;5070389;28;20495;-74
2023/12/08 04:07:45;;;;;;;41.65;21.80;;;;;;;2.40;100.00;100571.22;5070670;28;20057;-75
2023/12/08 04:10:10;;;;;;;46.05;22.75;;;;;;;2.32;100.00;100575.91;5070278;28;20044;-74
2023/12/08 04:12:36;;;;;;;46.53;22.55;;;;;;;2.31;100.00;100569.78;5071015;28;20586;-75
2023/12/08 04:15:01;;;;;;;44.80;24.33;;;;;;;2.31;100.00;100580.31;5075401;28;20040;-74
2023/12/08 04:17:27;;;;;;;41.60;23.00;;;;;;;2.46;100.00;100581.56;5074688;28;20083;-75
2023/12/08 04:19:52;;;;;;;50.63;23.27;;;;;;;2.53;100.00;100592.72;5050995;28;20789;-75
2023/12/08 04:22:18;;;;;;;47.78;23.20;;;;;;;2.63;100.00;100596.78;5076632;28;20044;-75
2023/12/08 04:24:43;;;;;;;48.30;23.55;;;;;;;2.68;100.00;100604.50;5073640;28;20112;-75
2023/12/08 04:27:09;;;;;;;50.80;24.55;;;;;;;2.76;100.00;100603.34;5074284;28;20032;-75
2023/12/08 04:29:34;;;;;;;49.25;25.17;;;;;;;2.80;100.00;100607.56;5070945;28;20669;-75
2023/12/08 04:32:00;;;;;;;48.47;24.25;;;;;;;2.76;100.00;100603.34;5099206;27;20946;-75
2023/12/08 04:34:25;;;;;;;50.30;24.50;;;;;;;2.84;100.00;100592.50;5063276;28;20040;-75
2023/12/08 04:36:50;;;;;;;47.85;25.42;;;;;;;2.81;100.00;100590.88;5078490;28;20060;-76
2023/12/08 04:39:16;;;;;;;48.22;24.10;;;;;;;2.50;100.00;100593.69;5062353;28;20036;-75
2023/12/08 04:41:42;;;;;;;45.83;24.05;;;;;;;2.55;100.00;100591.75;5071620;28;20925;-75
2023/12/08 04:44:07;;;;;;;44.65;24.60;;;;;;;2.48;100.00;100605.19;5076677;28;20048;-75
2023/12/08 04:46:33;;;;;;;50.03;25.02;;;;;;;2.51;100.00;100600.69;5076853;28;20105;-75
2023/12/08 04:48:58;;;;;;;48.22;25.27;;;;;;;2.32;100.00;100592.56;5074149;28;20055;-74
2023/12/08 04:51:23;;;;;;;52.50;24.98;;;;;;;2.31;100.00;100577.69;5070922;28;22730;-75
2023/12/08 04:53:49;;;;;;;49.88;25.20;;;;;;;2.31;100.00;100585.56;5070166;28;20040;-75
2023/12/08 04:56:14;;;;;;;47.50;24.65;;;;;;;2.25;100.00;100592.78;5055801;28;20867;-75
2023/12/08 04:58:40;;;;;;;50.72;24.95;;;;;;;2.30;100.00;100606.66;5069867;28;20040;-75
2023/12/08 05:01:11;;;;;;;50.42;24.38;;;;;;;2.46;100.00;100605.25;5070444;28;20024;-74
2023/12/08 05:03:36;;;;;;;51.72;26.10;;;;;;;2.52;100.00;100610.28;5076911;28;20032;-74
2023/12/08 05:06:02;;;;;;;50.28;25.98;;;;;;;2.58;100.00;100611.84;5074974;28;20037;-74
2023/12/08 05:08:29;;;;;;;51.40;26.33;;;;;;;2.54;100.00;100612.88;5076860;28;20129;-75
2023/12/08 05:10:54;;;;;;;52.35;25.75;;;;;;;2.53;100.00;100609.38;5074245;28;20028;-75
2023/12/08 05:13:19;;;;;;;57.58;26.90;;;;;;;2.55;100.00;100606.69;5054352;28;20127;-75
2023/12/08 05:15:45;;;;;;;50.22;26.40;;;;;;;2.45;100.00;100600.88;5056528;28;20041;-75
2023/12/08 05:18:10;;;;;;;55.58;26.90;;;;;;;2.42;100.00;100614.16;5072908;28;20603;-75
2023/12/08 05:20:36;;;;;;;59.63;26.98;;;;;;;2.50;100.00;100603.34;5065517;28;20040;-75
2023/12/08 05:23:01;;;;;;;53.75;27.13;;;;;;;2.53;100.00;100616.41;5053027;28;20032;-75
2023/12/08 05:25:27;;;;;;;50.15;26.98;;;;;;;2.55;100.00;100618.06;5071700;28;20032;-75
2023/12/08 05:27:52;;;;;;;49.42;26.90;;;;;;;2.53;100.00;100611.16;5070885;28;20036;-75
2023/12/08 05:30:18;;;;;;;54.30;26.60;;;;;;;2.44;100.00;100604.44;5071150;28;20033;-74
2023/12/08 05:32:43;;;;;;;61.17;27.65;;;;;;;2.28;100.00;100601.44;5057366;28;20541;-75
2023/12/08 05:35:09;;;;;;;59.22;29.50;;;;;;;2.41;100.00;100601.91;5072122;28;20044;-75
2023/12/08 05:37:34;;;;;;;48.58;25.58;;;;;;;2.23;100.00;100592.84;5081693;28;20041;-74
2023/12/08 05:40:00;;;;;;;52.22;26.17;;;;;;;2.33;100.00;100590.78;5070327;28;20032;-75
2023/12/08 05:42:25;;;;;;;55.15;27.38;;;;;;;2.33;100.00;100572.38;5072541;27;20462;-74
2023/12/08 05:44:51;;;;;;;57.42;28.25;;;;;;;2.30;100.00;100565.41;5085608;27;20099;-74
2023/12/08 05:47:16;;;;;;;54.80;28.67;;;;;;;2.37;100.00;100579.25;5057236;27;20029;-74
2023/12/08 05:49:42;;;;;;;53.25;28.35;;;;;;;2.51;100.00;100589.28;5069284;27;20098;-75
2023/12/08 05:52:07;;;;;;;54.85;27.52;;;;;;;2.40;100.00;100567.75;5040811;28;20040;-74
2023/12/08 05:54:33;;;;;;;58.58;27.80;;;;;;;2.41;100.00;100583.50;5079929;27;20037;-74
2023/12/08 05:56:59;;;;;;;56.78;27.15;;;;;;;2.43;100.00;100586.06;5070745;27;20517;-74
2023/12/08 05:59:25;;;;;;;53.85;27.17;;;;;;;2.42;100.00;100585.22;5055544;28;20044;-75
2023/12/08 06:01:50;;;;;;;58.63;28.67;;;;;;;2.53;100.00;100585.69;5078450;27;20036;-74
2023/12/08 06:04:16;;;;;;;56.40;28.95;;;;;;;2.40;100.00;100580.91;5075376;27;20907;-74
2023/12/08 06:06:41;;;;;;;53.70;27.73;;;;;;;2.55;100.00;100586.50;5070528;28;24804;-74
2023/12/08 06:09:07;;;;;;;57.47;28.35;;;;;;;2.38;100.00;100580.09;5069174;27;20139;-74
2023/12/08 06:11:33;;;;;;;54.40;28.17;;;;;;;2.46;100.00;100576.31;5069363;28;20037;-73
2023/12/08 06:14:01;;;;;;;55.28;27.77;;;;;;;2.60;100.00;100581.94;5069963;28;20866;-74
2023/12/08 06:16:27;;;;;;;56.55;28.98;;;;;;;2.66;100.00;100585.25;5086782;27;20036;-73
2023/12/08 06:18:53;;;;;;;58.25;28.83;;;;;;;2.64;100.00;100584.47;5063074;28;20047;-74
2023/12/08 06:21:18;;;;;;;58.63;29.17;;;;;;;2.75;100.00;100585.78;5073456;28;20032;-74
2023/12/08 06:23:44;;;;;;;60.67;29.05;;;;;;;2.84;100.00;100587.25;5069340;27;20890;-74
2023/12/08 06:26:09;;;;;;;61.53;29.73;;;;;;;2.80;100.00;100578.59;5056292;28;20024;-74
2023/12/08 06:28:35;;;;;;;63.60;31.08;;;;;;;2.74;100.00;100594.63;5069733;28;20036;-74
2023/12/08 06:31:01;;;;;;;61.63;30.52;;;;;;;2.84;100.00;100585.47;5068955;28;20044;-75
2023/12/08 06:33:27;;;;;;;55.72;29.40;;;;;;;2.84;100.00;100582.84;5070512;28;20037;-74
2023/12/08 06:35:52;;;;;;;63.72;29.50;;;;;;;2.88;100.00;100583.59;5075844;28;20852;-75
2023/12/08 06:38:18;;;;;;;68.97;33.35;;;;;;;2.96;100.00;100588.56;5056770;28;20052;-74
2023/12/08 06:40:43;;;;;;;64.47;32.47;;;;;;;2.98;100.00;100592.03;5072176;28;20370;-74
2023/12/08 06:43:09;;;;;;;69.55;30.40;;;;;;;2.89;100.00;100592.34;5075582;28;20028;-74
2023/12/08 06:45:34;;;;;;;66.05;31.77;;;;;;;3.02;100.00;100596.28;5075079;28;20028;-75
2023/12/08 06:47:59;;;;;;;72.53;33.78;;;;;;;2.96;100.00;100596.47;5074938;28;20025;-74
2023/12/08 06:50:25;;;;;;;69.50;31.95;;;;;;;3.00;100.00;100595.44;5078732;28;20279;-75
2023/12/08 06:52:51;;;;;;;72.38;33.45;;;;;;;2.99;100.00;100599.00;5078028;28;20044;-75
2023/12/08 06:55:19;;;;;;;71.10;32.13;;;;;;;2.85;100.00;100595.09;5074878;28;20041;-74
2023/12/08 06:57:45;;;;;;;63.47;32.20;;;;;;;2.84;100.00;100598.63;5077995;28;20036;-74
2023/12/08 07:00:11;;;;;;;67.50;32.25;;;;;;;2.85;100.00;100591.59;5083588;28;20041;-74
2023/12/08 07:02:37;;;;;;;69.47;34.00;;;;;;;2.84;100.00;100581.97;5075525;28;20535;-75
2023/12/08 07:05:02;;;;;;;70.20;31.45;;;;;;;2.89;100.00;100589.72;5075142;28;20110;-74
2023/12/08 07:07:28;;;;;;;71.18;34.33;;;;;;;2.92;100.00;100592.25;5072150;28;20036;-74
2023/12/08 07:09:53;;;;;;;74.78;34.20;;;;;;;3.02;100.00;100594.50;5080985;28;20518;-74
2023/12/08 07:12:19;;;;;;;67.80;33.40;;;;;;;2.97;100.00;100609.59;5077616;28;20040;-75
2023/12/08 07:14:44;;;;;;;78.68;36.17;;;;;;;3.08;100.00;100599.53;5074223;28;20670;-74
2023/12/08 07:17:10;;;;;;;71.57;34.85;;;;;;;3.06;100.00;100597.84;5075851;28;20040;-75
2023/12/08 07:19:38;;;;;;;67.38;33.90;;;;;;;2.94;100.00;100598.31;5075910;28;20045;-74
2023/12/08 07:22:04;;;;;;;71.68;34.70;;;;;;;3.01;100.00;100600.69;5073989;28;20914;-74
2023/12/08 07:24:29;;;;;;;69.65;34.28;;;;;;;3.12;100.00;100595.03;5074403;28;20024;-74
2023/12/08 07:26:55;;;;;;;80.55;34.53;;;;;;;3.13;100.00;100595.88;5071042;28;20032;-74
2023/12/08 07:29:23;;;;;;;76.05;35.38;;;;;;;3.19;100.00;100595.66;5071736;28;20064;-74
2023/12/08 07:31:49;;;;;;;70.97;33.83;;;;;;;3.17;100.00;100600.97;5069920;28;25800;-74
2023/12/08 07:34:15;;;;;;;78.45;37.75;;;;;;;3.17;100.00;100598.34;5070418;28;20036;-74
2023/12/08 07:36:40;;;;;;;89.45;38.80;;;;;;;3.16;100.00;100591.34;5075356;28;20053;-74
2023/12/08 07:39:09;;;;;;;83.45;35.72;;;;;;;3.06;100.00;100593.47;5070628;28;20637;-74
2023/12/08 07:41:34;;;;;;;85.38;36.63;;;;;;;3.05;100.00;100604.91;5073428;28;20047;-73
2023/12/08 07:44:00;;;;;;;85.40;38.45;;;;;;;3.13;100.00;100612.53;5052858;28;20051;-74
2023/12/08 07:46:25;;;;;;;89.90;37.78;;;;;;;3.11;100.00;100611.72;5070653;28;20547;-74
2023/12/08 07:48:51;;;;;;;90.60;37.72;;;;;;;3.18;100.00;100615.88;5072325;28;20052;-74
2023/12/08 07:51:17;;;;;;;91.07;38.78;;;;;;;3.19;100.00;100619.38;5053979;28;20939;-74
2023/12/08 07:53:43;;;;;;;95.40;40.30;;;;;;;3.17;100.00;100627.34;5074542;28;20044;-74
2023/12/08 07:56:08;;;;;;;89.45;38.20;;;;;;;3.18;100.00;100631.69;5074697;28;21965;-74
2023/12/08 07:58:34;;;;;;;89.68;39.10;;;;;;;3.22;100.00;100638.56;5070924;28;20127;-75
2023/12/08 08:00:59;;;;;;;89.45;38.50;;;;;;;3.17;100.00;100631.75;5071582;28;20041;-74
2023/12/08 08:03:26;;;;;;;94.30;38.42;;;;;;;3.16;100.00;100641.41;5076101;28;20195;-74
2023/12/08 08:05:51;;;;;;;98.15;38.55;;;;;;;3.20;100.00;100650.06;5072120;28;20033;-74
2023/12/08 08:08:18;;;;;;;94.57;38.83;;;;;;;3.27;100.00;100652.44;5072133;27;20864;-74
2023/12/08 08:10:43;;;;;;;86.22;36.58;;;;;;;3.26;100.00;100650.72;5080691;27;20043;-75
2023/12/08 08:13:08;;;;;;;90.63;38.60;;;;;;;3.32;100.00;100649.63;5059791;28;20043;-74
2023/12/08 08:15:34;;;;;;;83.60;37.90;;;;;;;3.37;100.00;100648.53;5075051;28;20033;-74
2023/12/08 08:17:59;;;;;;;90.43;38.65;;;;;;;3.39;100.00;100656.38;5070525;28;20032;-74
2023/12/08 08:20:25;;;;;;;78.35;35.67;;;;;;;3.33;100.00;100654.84;5065970;28;20032;-74
2023/12/08 08:22:50;;;;;;;80.90;36.80;;;;;;;3.28;100.00;100658.56;5077853;28;20036;-75
2023/12/08 08:25:16;;;;;;;83.90;37.38;;;;;;;3.42;100.00;100661.56;5074410;28;20047;-74
2023/12/08 08:27:41;;;;;;;99.82;40.13;;;;;;;3.40;100.00;100658.09;5072732;28;20033;-75
2023/12/08 08:30:07;;;;;;;93.40;38.42;;;;;;;3.41;100.00;100654.53;5092496;27;20844;-73
2023/12/08 08:32:33;;;;;;;94.80;40.03;;;;;;;3.43;100.00;100651.88;5059995;28;20044;-73
2023/12/08 08:34:58;;;;;;;103.70;42.05;;;;;;;3.50;100.00;100654.19;5076413;28;20040;-73
2023/12/08 08:37:24;;;;;;;104.30;41.80;;;;;;;3.48;100.00;100652.56;5071244;27;20048;-73
2023/12/08 08:39:50;;;;;;;94.68;40.00;;;;;;;3.56;100.00;100647.84;5068652;28;20177;-73
2023/12/08 08:42:17;;;;;;;114.22;43.38;;;;;;;3.68;100.00;100641.25;5072259;27;20036;-75
2023/12/08 08:44:42;;;;;;;111.03;42.33;;;;;;;3.71;100.00;100651.66;5071369;27;20107;-72
2023/12/08 08:47:08;;;;;;;111.45;44.60;;;;;;;3.73;100.00;100655.13;5091123;27;20032;-73
2023/12/08 08:49:33;;;;;;;119.40;45.33;;;;;;;3.75;100.00;100645.38;5068595;28;21820;-73
2023/12/08 08:51:59;;;;;;;111.55;43.58;;;;;;;3.78;100.00;100661.09;5076106;28;20032;-73
2023/12/08 08:54:25;;;;;;;113.75;44.80;;;;;;;3.67;100.00;100661.50;5090227;27;20035;-73
2023/12/08 08:56:51;;;;;;;102.95;42.35;;;;;;;3.78;100.00;100669.00;5068493;28;20100;-73
2023/12/08 08:59:16;;;;;;;113.68;43.47;;;;;;;3.77;100.00;100668.13;5067793;28;20035;-72
2023/12/08 09:01:42;;;;;;;116.50;46.67;;;;;;;3.73;100.00;100660.41;5071792;28;20036;-76
2023/12/08 09:04:08;;;;;;;113.82;44.72;;;;;;;3.59;100.00;100659.13;5071731;28;20078;-75
2023/12/08 09:06:33;;;;;;;117.78;44.95;;;;;;;3.78;100.00;100669.00;5071374;28;20090;-75
2023/12/08 09:09:00;;;;;;;119.15;46.67;;;;;;;3.70;100.00;100671.06;5072465;27;20036;-76
2023/12/08 09:11:26;;;;;;;128.00;48.63;;;;;;;3.74;100.00;100670.88;5058582;28;20036;-75
2023/12/08 09:13:51;;;;;;;132.15;48.30;;;;;;;3.81;100.00;100666.22;5074545;27;20045;-75
2023/12/08 09:16:17;;;;;;;108.03;44.63;;;;;;;3.88;100.00;100665.09;5077063;27;20032;-74
2023/12/08 09:18:43;;;;;;;133.85;48.28;;;;;;;3.72;100.00;100666.59;5055680;28;20052;-75
2023/12/08 09:21:08;;;;;;;136.32;47.83;;;;;;;3.79;100.00;100683.91;5055477;28;20044;-75
2023/12/08 09:23:33;;;;;;;123.97;47.25;;;;;;;3.86;100.00;100680.94;5073201;27;20346;-74
2023/12/08 09:25:59;;;;;;;143.15;50.97;;;;;;;3.84;100.00;100680.16;5071992;27;20206;-74
2023/12/08 09:28:25;;;;;;;123.68;49.28;;;;;;;3.87;100.00;100689.75;5068501;27;20035;-75
2023/12/08 09:30:50;;;;;;;161.60;53.97;;;;;;;3.81;100.00;100697.88;5070072;27;20042;-74
2023/12/08 09:33:16;;;;;;;140.88;50.47;;;;;;;3.88;100.00;100697.59;5053709;28;20777;-75
2023/12/08 09:35:41;;;;;;;137.38;46.78;;;;;;;3.94;100.00;100699.13;5070616;27;20479;-75
2023/12/08 09:38:07;;;;;;;140.93;50.78;;;;;;;3.90;100.00;100698.38;5071482;27;20060;-75
2023/12/08 09:40:33;;;;;;;139.90;48.55;;;;;;;3.97;100.00;100700.81;5069242;27;20028;-75
2023/12/08 09:43:28;;;;;;;135.60;48.03;;;;;;;3.93;100.00;100705.34;5071309;27;20037;-74
2023/12/08 09:45:54;;;;;;;151.25;50.67;;;;;;;4.00;100.00;100701.53;5068101;28;20040;-75
2023/12/08 09:48:23;;;;;;;153.30;51.30;;;;;;;4.01;100.00;100697.97;5066705;28;20840;-74
2023/12/08 09:50:50;;;;;;;141.02;50.60;;;;;;;3.95;100.00;100702.63;5069025;28;20143;-75
2023/12/08 09:53:16;;;;;;;151.80;51.13;;;;;;;4.05;100.00;100698.72;5049286;28;21082;-75
2023/12/08 09:55:43;;;;;;;140.13;51.47;;;;;;;4.13;100.00;100696.66;5065875;27;20036;-74
2023/12/08 09:58:10;;;;;;;140.50;52.67;;;;;;;4.16;100.00;100701.78;5064199;28;20857;-74
2023/12/08 10:00:36;;;;;;;162.88;52.33;;;;;;;4.16;100.00;100701.78;5065522;28;20106;-74
2023/12/08 10:03:01;;;;;;;145.77;50.92;;;;;;;4.12;100.00;100702.84;5070039;28;20202;-74
2023/12/08 10:05:27;;;;;;;148.77;51.63;;;;;;;4.20;100.00;100699.91;5067157;28;20024;-74
2023/12/08 10:07:54;;;;;;;131.80;49.00;;;;;;;4.20;100.00;100703.38;5068119;28;20039;-74
2023/12/08 10:10:21;;;;;;;129.82;49.35;;;;;;;4.35;100.00;100697.50;5069652;28;21017;-74
2023/12/08 10:12:47;;;;;;;126.97;46.92;;;;;;;4.36;100.00;100695.72;5070084;27;20758;-74
2023/12/08 10:15:15;;;;;;;139.20;48.55;;;;;;;4.36;100.00;100698.34;5073711;28;20977;-74
2023/12/08 10:17:49;;;;;;;143.85;48.80;;;;;;;4.40;100.00;100698.19;5075454;28;20370;-74
2023/12/08 10:20:15;;;;;;;113.18;43.55;;;;;;;4.43;100.00;100702.50;5064248;28;21142;-74
2023/12/08 10:22:46;;;;;;;141.77;47.47;;;;;;;4.50;100.00;100696.03;5084140;27;20040;-74
2023/12/08 10:25:14;;;;;;;114.95;41.60;;;;;;;4.48;100.00;100697.88;5077187;27;20043;-74
2023/12/08 10:27:39;;;;;;;137.10;48.10;;;;;;;4.50;100.00;100701.31;5078221;27;20765;-74
2023/12/08 10:30:05;;;;;;;107.93;42.10;;;;;;;4.48;100.00;100700.53;5075913;27;20048;-74
2023/12/08 10:32:33;;;;;;;132.40;44.67;;;;;;;4.46;100.00;100709.41;5082728;27;20031;-74
2023/12/08 10:34:58;;;;;;;176.70;53.70;;;;;;;4.47;100.00;100709.38;5076789;28;20029;-74
2023/12/08 10:37:24;;;;;;;153.82;49.83;;;;;;;4.56;100.00;100710.75;5078221;28;20280;-74
2023/12/08 10:39:50;;;;;;;167.52;54.38;;;;;;;4.62;100.00;100716.66;5090441;27;20049;-75
2023/12/08 10:42:16;;;;;;;132.98;45.80;;;;;;;4.57;100.00;100713.34;5075505;28;20067;-73
2023/12/08 10:44:45;;;;;;;144.25;49.72;;;;;;;4.68;100.00;100718.19;5079119;28;20050;-75
2023/12/08 10:47:12;;;;;;;166.13;51.28;;;;;;;4.74;100.00;100707.38;5075900;28;20119;-75
2023/12/08 10:49:38;;;;;;;143.88;48.03;;;;;;;4.84;100.00;100711.34;5073426;27;20144;-74
2023/12/08 10:52:05;;;;;;;190.48;55.25;;;;;;;4.70;100.00;100704.91;5076571;28;20029;-74
2023/12/08 10:54:32;;;;;;;168.05;55.00;;;;;;;4.76;100.00;100707.31;5077198;28;20050;-75
2023/12/08 10:56:57;;;;;;;158.30;51.45;;;;;;;4.76;100.00;100702.88;5077511;28;20028;-74
2023/12/08 10:59:28;;;;;;;215.40;60.15;;;;;;;4.77;100.00;100701.97;5079179;28;20033;-74
2023/12/08 11:01:55;;;;;;;229.00;63.60;;;;;;;4.81;100.00;100703.53;5074669;28;20032;-74